Time;durP1;ratioP1;P1;durP2;ratioP2;P2;SDS_P1;SDS_P2;PMS_P1;PMS_P2;Temp;Humidity;BMP_temperature;BMP_pressure;BME280_temperature;BME280_humidity;BME280_pressure;Samples;Min_cycle;Max_cycle;Signal;HPM_P1;HPM_P2
2023/06/03 00:01:47;;;;;;;10.97;10.57;;;12.50;99.90;;;;;;5043748;28;20480;-68
2023/06/03 00:04:16;;;;;;;10.20;9.90;;;12.50;99.90;;;;;;5040792;28;20585;-67
2023/06/03 00:06:44;;;;;;;10.63;10.23;;;12.40;99.90;;;;;;5047723;28;21032;-68
2023/06/03 00:09:12;;;;;;;10.73;10.33;;;12.40;99.90;;;;;;5046124;28;20468;-68
2023/06/03 00:11:39;;;;;;;10.47;10.07;;;12.30;99.90;;;;;;5045371;28;20468;-68
2023/06/03 00:14:08;;;;;;;9.90;9.60;;;12.20;99.90;;;;;;5038875;28;20515;-68
2023/06/03 00:16:35;;;;;;;10.40;10.00;;;12.00;99.90;;;;;;5043075;28;20457;-68
2023/06/03 00:19:03;;;;;;;10.87;10.47;;;11.80;99.90;;;;;;5041025;28;20483;-67
2023/06/03 00:21:29;;;;;;;10.53;10.13;;;11.60;99.90;;;;;;5046372;28;20484;-68
2023/06/03 00:23:56;;;;;;;21.73;17.53;;;11.40;99.90;;;;;;5045609;28;20460;-68
2023/06/03 00:26:23;;;;;;;11.27;10.87;;;11.30;99.90;;;;;;5046474;28;20470;-67
2023/06/03 00:28:50;;;;;;;11.53;11.13;;;11.10;99.90;;;;;;5036612;28;20460;-68
2023/06/03 00:31:19;;;;;;;11.07;10.67;;;11.00;99.90;;;;;;5040952;28;20515;-67
2023/06/03 00:33:46;;;;;;;10.70;10.30;;;11.00;99.90;;;;;;5045294;28;20464;-67
2023/06/03 00:36:14;;;;;;;10.60;10.20;;;11.00;99.90;;;;;;5044878;28;20514;-68
2023/06/03 00:38:40;;;;;;;9.67;9.37;;;10.90;99.90;;;;;;5042473;28;20492;-67
2023/06/03 00:41:08;;;;;;;9.70;9.40;;;10.80;99.90;;;;;;5040164;28;20480;-68
2023/06/03 00:43:35;;;;;;;10.20;9.80;;;10.70;99.90;;;;;;5049879;28;20472;-69
2023/06/03 00:46:02;;;;;;;10.20;9.80;;;10.50;99.90;;;;;;5041531;28;20480;-68
2023/06/03 00:48:30;;;;;;;10.33;9.93;;;10.40;99.90;;;;;;5035007;28;20462;-68
2023/06/03 00:50:59;;;;;;;10.23;9.83;;;10.30;99.90;;;;;;5040507;28;20507;-68
2023/06/03 00:53:26;;;;;;;10.27;9.87;;;10.20;99.90;;;;;;5042505;28;20465;-67
2023/06/03 00:55:54;;;;;;;10.63;10.23;;;10.10;99.90;;;;;;5039561;28;20456;-68
2023/06/03 00:58:21;;;;;;;10.27;9.87;;;10.10;99.90;;;;;;5044919;28;20461;-68
2023/06/03 01:00:48;;;;;;;10.30;9.90;;;10.10;99.90;;;;;;5046452;28;20476;-67
2023/06/03 01:03:19;;;;;;;9.33;9.03;;;10.10;99.90;;;;;;5045165;28;20576;-68
2023/06/03 01:05:55;;;;;;;9.50;9.20;;;10.00;99.90;;;;;;5040755;28;20478;-68
2023/06/03 01:08:27;;;;;;;8.90;8.60;;;9.80;99.90;;;;;;5044370;28;20475;-68
2023/06/03 01:11:05;;;;;;;9.60;9.30;;;9.60;99.90;;;;;;5045872;28;20467;-68
2023/06/03 01:13:43;;;;;;;9.23;8.93;;;9.50;99.90;;;;;;5038905;28;20467;-68
2023/06/03 01:16:11;;;;;;;8.70;8.40;;;9.50;99.90;;;;;;5039536;28;21014;-68
2023/06/03 01:18:39;;;;;;;8.73;8.43;;;9.60;99.90;;;;;;5037328;28;20475;-69
2023/06/03 01:21:12;;;;;;;8.50;8.20;;;9.60;99.90;;;;;;5042569;28;20511;-68
2023/06/03 01:23:43;;;;;;;9.20;8.90;;;9.50;99.90;;;;;;5036741;28;20468;-68
2023/06/03 01:26:11;;;;;;;8.73;8.43;;;9.50;99.90;;;;;;5042382;28;20556;-68
2023/06/03 01:28:39;;;;;;;8.27;7.97;;;9.40;99.90;;;;;;5043202;28;20492;-68
2023/06/03 01:31:07;;;;;;;8.33;8.03;;;9.40;99.90;;;;;;5038050;28;20487;-68
2023/06/03 01:33:35;;;;;;;8.23;7.93;;;9.40;99.90;;;;;;5045246;28;20958;-68
2023/06/03 01:36:04;;;;;;;8.30;8.00;;;9.30;99.90;;;;;;5045626;28;20989;-68
2023/06/03 01:38:32;;;;;;;8.50;8.20;;;9.30;99.90;;;;;;5034909;28;20468;-68
2023/06/03 01:41:01;;;;;;;8.87;8.57;;;9.30;99.90;;;;;;5040613;28;20483;-68
2023/06/03 01:43:28;;;;;;;8.13;7.83;;;9.30;99.90;;;;;;5041864;28;20860;-68
2023/06/03 01:45:55;;;;;;;8.10;7.80;;;9.40;99.90;;;;;;5043084;28;20946;-68
2023/06/03 01:48:24;;;;;;;7.30;7.10;;;9.50;99.90;;;;;;5037775;28;20471;-68
2023/06/03 01:50:51;;;;;;;7.50;7.30;;;9.40;99.90;;;;;;5037331;28;20519;-68
2023/06/03 01:53:18;;;;;;;7.70;7.50;;;9.30;99.90;;;;;;5048682;28;20475;-68
2023/06/03 01:55:46;;;;;;;7.97;7.67;;;9.20;99.90;;;;;;5034874;28;20832;-69
2023/06/03 01:58:16;;;;;;;7.37;7.17;;;9.10;99.90;;;;;;5043379;28;20800;-67
2023/06/03 02:00:43;;;;;;;7.40;7.20;;;9.20;99.90;;;;;;5040103;28;20463;-69
2023/06/03 02:03:11;;;;;;;8.10;7.80;;;9.20;99.90;;;;;;5039392;28;20468;-69
2023/06/03 02:05:38;;;;;;;7.60;7.40;;;9.10;99.90;;;;;;5040632;28;20468;-68
2023/06/03 02:08:07;;;;;;;7.70;7.50;;;9.10;99.90;;;;;;5044639;28;20482;-69
2023/06/03 02:10:35;;;;;;;8.00;7.70;;;9.10;99.90;;;;;;5041631;28;20467;-68
2023/06/03 02:13:03;;;;;;;7.33;7.13;;;9.10;99.90;;;;;;5034959;28;21008;-68
2023/06/03 02:15:31;;;;;;;7.67;7.47;;;9.10;99.90;;;;;;5043902;28;20479;-68
2023/06/03 02:17:59;;;;;;;7.67;7.47;;;9.10;99.90;;;;;;5036758;28;20468;-68
2023/06/03 02:20:26;;;;;;;7.63;7.43;;;9.00;99.90;;;;;;5039363;28;20491;-68
2023/06/03 02:22:53;;;;;;;8.00;7.70;;;9.00;99.90;;;;;;5036826;28;20497;-68
2023/06/03 02:25:21;;;;;;;8.10;7.80;;;9.00;99.90;;;;;;5039374;28;20987;-68
2023/06/03 02:27:49;;;;;;;8.67;8.37;;;9.00;99.90;;;;;;5039347;28;20460;-68
2023/06/03 02:30:16;;;;;;;8.80;8.50;;;8.90;99.90;;;;;;5038474;28;20550;-67
2023/06/03 02:32:45;;;;;;;8.87;8.57;;;8.80;99.90;;;;;;5039647;28;20526;-67
2023/06/03 02:35:13;;;;;;;8.60;8.30;;;8.80;99.90;;;;;;5035512;28;20460;-68
2023/06/03 02:37:39;;;;;;;8.63;8.33;;;8.80;99.90;;;;;;5043913;28;20459;-67
2023/06/03 02:40:09;;;;;;;8.50;8.20;;;8.80;99.90;;;;;;5035679;28;20826;-68
2023/06/03 02:42:38;;;;;;;8.37;8.07;;;8.80;99.90;;;;;;5050288;28;20602;-67
2023/06/03 02:45:06;;;;;;;9.10;8.80;;;8.80;99.90;;;;;;5043951;28;20471;-67
2023/06/03 02:47:33;;;;;;;9.17;8.87;;;8.80;99.90;;;;;;5039533;28;20903;-68
2023/06/03 02:50:01;;;;;;;8.60;8.30;;;8.80;99.90;;;;;;5043779;28;20491;-68
2023/06/03 02:52:28;;;;;;;8.97;8.67;;;8.80;99.90;;;;;;5047388;28;20528;-69
2023/06/03 02:54:55;;;;;;;8.50;8.20;;;8.80;99.90;;;;;;5047922;28;20470;-68
2023/06/03 02:57:24;;;;;;;8.80;8.50;;;8.70;99.90;;;;;;5039978;28;20491;-68
2023/06/03 02:59:50;;;;;;;8.63;8.33;;;8.70;99.90;;;;;;5040326;28;20519;-68
2023/06/03 03:02:19;;;;;;;10.33;9.93;;;8.80;99.90;;;;;;5046678;28;20575;-68
2023/06/03 03:04:46;;;;;;;8.97;8.67;;;8.80;99.90;;;;;;5045111;28;20455;-68
2023/06/03 03:07:17;;;;;;;9.63;9.33;;;8.80;99.90;;;;;;5050030;28;20640;-68
2023/06/03 03:09:45;;;;;;;9.90;9.60;;;8.80;99.90;;;;;;5044411;28;20463;-68
2023/06/03 03:12:12;;;;;;;9.30;9.00;;;8.70;99.90;;;;;;5038290;28;20468;-68
2023/06/03 03:14:39;;;;;;;9.43;9.13;;;8.70;99.90;;;;;;5047909;28;20452;-68
2023/06/03 03:17:06;;;;;;;9.43;9.13;;;8.60;99.90;;;;;;5045116;28;20463;-67
2023/06/03 03:19:35;;;;;;;9.93;9.63;;;8.70;99.90;;;;;;5049867;28;20487;-68
2023/06/03 03:22:03;;;;;;;9.70;9.40;;;8.70;99.90;;;;;;5034613;28;20546;-68
2023/06/03 03:24:33;;;;;;;10.20;9.80;;;8.80;99.90;;;;;;5050079;28;20459;-68
2023/06/03 03:27:00;;;;;;;9.30;9.00;;;8.70;99.90;;;;;;5046087;28;20994;-68
2023/06/03 03:29:29;;;;;;;9.80;9.50;;;8.70;99.90;;;;;;5045466;28;20992;-67
2023/06/03 03:32:05;;;;;;;9.30;9.00;;;8.60;99.90;;;;;;5047122;28;20475;-67
2023/06/03 03:34:36;;;;;;;9.50;9.20;;;8.60;99.90;;;;;;5043511;28;20464;-68
2023/06/03 03:37:04;;;;;;;10.27;9.87;;;8.60;99.90;;;;;;5042274;28;20466;-67
2023/06/03 03:39:32;;;;;;;10.07;9.67;;;8.60;99.90;;;;;;5052290;28;20565;-68
2023/06/03 03:41:59;;;;;;;10.40;10.00;;;8.50;99.90;;;;;;5046955;28;20487;-68
2023/06/03 03:44:31;;;;;;;10.03;9.63;;;8.50;99.90;;;;;;5042554;28;20472;-68
2023/06/03 03:47:01;;;;;;;10.10;9.70;;;8.50;99.90;;;;;;5048631;28;20471;-68
2023/06/03 03:49:31;;;;;;;10.23;9.83;;;8.50;99.90;;;;;;5046782;28;20545;-67
2023/06/03 03:52:03;;;;;;;9.53;9.23;;;8.50;99.90;;;;;;5049002;28;20967;-68
2023/06/03 03:54:34;;;;;;;10.13;9.73;;;8.50;99.90;;;;;;5041882;28;20508;-68
2023/06/03 03:57:06;;;;;;;10.07;9.67;;;8.50;99.90;;;;;;5043910;28;20471;-67
2023/06/03 03:59:35;;;;;;;10.10;9.70;;;8.50;99.90;;;;;;5040266;28;20475;-68
2023/06/03 04:02:01;;;;;;;10.03;9.63;;;8.50;99.90;;;;;;5050683;28;20487;-67
2023/06/03 04:04:40;;;;;;;10.30;9.90;;;8.50;99.90;;;;;;5036570;28;20463;-67
2023/06/03 04:07:08;;;;;;;9.63;9.33;;;8.60;99.90;;;;;;5042059;28;20459;-68
2023/06/03 04:09:38;;;;;;;9.70;9.40;;;8.60;99.90;;;;;;5040474;28;20468;-68
2023/06/03 04:12:11;;;;;;;9.77;9.47;;;8.70;99.90;;;;;;5041957;28;20491;-67
2023/06/03 04:14:46;;;;;;;9.80;9.50;;;8.80;99.90;;;;;;5031869;28;20893;-68
2023/06/03 04:17:14;;;;;;;9.50;9.20;;;8.80;99.90;;;;;;5044140;28;20455;-68
2023/06/03 04:19:41;;;;;;;9.53;9.23;;;8.80;99.90;;;;;;5042064;28;21043;-67
2023/06/03 04:22:10;;;;;;;11.33;10.93;;;8.90;99.90;;;;;;5033741;28;20850;-68
2023/06/03 04:24:42;;;;;;;9.47;9.17;;;8.90;99.90;;;;;;5041357;28;20453;-68
2023/06/03 04:27:08;;;;;;;10.30;9.90;;;8.90;99.90;;;;;;5041936;28;20472;-68
2023/06/03 04:29:36;;;;;;;9.73;9.43;;;8.90;99.90;;;;;;5046200;28;20589;-67
2023/06/03 04:32:02;;;;;;;10.37;9.97;;;8.90;99.90;;;;;;5042759;28;20554;-67
2023/06/03 04:34:30;;;;;;;10.60;10.20;;;9.10;99.90;;;;;;5034503;28;20935;-68
2023/06/03 04:36:57;;;;;;;10.00;9.60;;;9.20;99.90;;;;;;5036616;28;20460;-67
2023/06/03 04:39:25;;;;;;;9.97;9.57;;;9.40;99.90;;;;;;5039715;28;20535;-67
2023/06/03 04:41:55;;;;;;;9.10;8.80;;;9.60;99.90;;;;;;5042337;28;20485;-67
2023/06/03 04:44:22;;;;;;;9.63;9.30;;;9.70;99.90;;;;;;5036218;28;20531;-69
2023/06/03 04:46:49;;;;;;;9.20;8.90;;;9.90;99.90;;;;;;5038992;28;20551;-67
2023/06/03 04:49:16;;;;;;;9.97;9.50;;;10.10;99.90;;;;;;5035568;28;20468;-68
2023/06/03 04:51:44;;;;;;;9.40;9.10;;;10.30;99.90;;;;;;5040358;28;20899;-68
2023/06/03 04:54:11;;;;;;;30.00;27.50;;;10.30;99.90;;;;;;5032282;28;21465;-67
2023/06/03 04:56:38;;;;;;;9.37;9.07;;;10.50;99.90;;;;;;5045482;28;20488;-67
2023/06/03 04:59:06;;;;;;;9.33;9.03;;;10.70;99.90;;;;;;5037486;28;21001;-68
2023/06/03 05:01:36;;;;;;;9.33;9.03;;;10.80;99.90;;;;;;5035854;28;20551;-68
2023/06/03 05:04:03;;;;;;;10.33;9.93;;;11.00;99.90;;;;;;5042182;28;20974;-68
2023/06/03 05:06:32;;;;;;;11.33;10.73;;;11.10;99.90;;;;;;5037179;28;21017;-68
2023/06/03 05:08:58;;;;;;;10.00;9.60;;;11.20;99.90;;;;;;5036634;28;20464;-68
2023/06/03 05:11:25;;;;;;;11.43;10.93;;;11.40;99.90;;;;;;5042782;28;20488;-67
2023/06/03 05:13:52;;;;;;;10.33;9.93;;;11.60;99.90;;;;;;5035425;28;20463;-68
2023/06/03 05:16:20;;;;;;;10.70;10.30;;;11.60;99.90;;;;;;5047277;28;20463;-68
2023/06/03 05:18:48;;;;;;;11.13;10.30;;;11.70;99.90;;;;;;5031951;28;20459;-68
2023/06/03 05:21:19;;;;;;;11.57;10.87;;;11.90;99.90;;;;;;5037459;28;20846;-67
2023/06/03 05:23:46;;;;;;;10.10;9.70;;;12.10;99.90;;;;;;5033727;28;20582;-68
2023/06/03 05:26:13;;;;;;;13.83;10.50;;;12.20;99.90;;;;;;5041439;28;20471;-68
2023/06/03 05:28:41;;;;;;;9.50;9.10;;;12.30;99.90;;;;;;5037463;28;20459;-68
2023/06/03 05:31:08;;;;;;;9.40;9.10;;;12.40;99.90;;;;;;5039869;28;20452;-69
2023/06/03 05:33:37;;;;;;;9.63;9.23;;;12.50;99.90;;;;;;5035359;28;21009;-68
2023/06/03 05:36:04;;;;;;;10.37;9.87;;;12.60;99.90;;;;;;5038887;28;20495;-68
2023/06/03 05:38:32;;;;;;;10.43;9.93;;;12.80;99.90;;;;;;5037990;28;20824;-68
2023/06/03 05:41:02;;;;;;;11.30;10.80;;;12.90;99.90;;;;;;5039619;28;20467;-69
2023/06/03 05:43:30;;;;;;;12.23;11.47;;;13.00;99.90;;;;;;5037647;28;20507;-68
2023/06/03 05:45:57;;;;;;;11.50;10.90;;;13.10;99.90;;;;;;5040740;28;20959;-68
2023/06/03 05:48:24;;;;;;;10.57;10.17;;;13.20;99.90;;;;;;5035108;28;20460;-69
2023/06/03 05:50:53;;;;;;;11.00;10.60;;;13.30;99.90;;;;;;5033620;28;21135;-68
2023/06/03 05:53:22;;;;;;;11.77;11.27;;;13.60;99.90;;;;;;5039893;28;20952;-68
2023/06/03 05:55:50;;;;;;;12.00;11.40;;;13.70;99.90;;;;;;5044808;28;20951;-68
2023/06/03 05:58:17;;;;;;;11.60;11.10;;;13.90;99.90;;;;;;5035396;28;20471;-68
2023/06/03 06:00:46;;;;;;;12.30;11.80;;;13.90;99.90;;;;;;5038646;28;20956;-68
2023/06/03 06:03:13;;;;;;;12.17;11.67;;;13.90;99.90;;;;;;5039556;28;20487;-67
2023/06/03 06:05:40;;;;;;;12.13;11.63;;;14.20;99.90;;;;;;5042852;28;20452;-67
2023/06/03 06:08:09;;;;;;;12.70;12.10;;;14.40;99.90;;;;;;5033500;28;20900;-68
2023/06/03 06:10:35;;;;;;;13.83;12.90;;;14.40;99.90;;;;;;5041015;28;20486;-68
2023/06/03 06:13:03;;;;;;;13.77;13.07;;;14.40;99.90;;;;;;5040772;28;20827;-68
2023/06/03 06:15:30;;;;;;;13.10;12.30;;;14.50;99.90;;;;;;5036980;28;20463;-69
2023/06/03 06:17:57;;;;;;;12.80;12.30;;;14.60;99.90;;;;;;5035457;28;21008;-68
2023/06/03 06:20:26;;;;;;;13.77;13.17;;;14.60;99.90;;;;;;5039231;28;20487;-68
2023/06/03 06:22:53;;;;;;;13.43;12.83;;;14.70;99.90;;;;;;5040259;28;20555;-68
2023/06/03 06:25:22;;;;;;;13.03;12.53;;;14.90;99.90;;;;;;5038474;28;20464;-68
2023/06/03 06:27:49;;;;;;;12.87;12.37;;;15.00;99.90;;;;;;5042042;28;20522;-67
2023/06/03 06:30:18;;;;;;;13.10;12.60;;;15.00;99.90;;;;;;5039192;28;20464;-68
2023/06/03 06:32:49;;;;;;;13.40;12.70;;;14.90;99.90;;;;;;5034835;28;20478;-68
2023/06/03 06:35:17;;;;;;;13.40;12.80;;;14.90;99.90;;;;;;5034984;28;20464;-68
2023/06/03 06:37:45;;;;;;;14.00;13.30;;;15.10;99.90;;;;;;5040978;28;20477;-68
2023/06/03 06:40:19;;;;;;;14.60;13.90;;;15.30;99.90;;;;;;5044910;28;20563;-68
2023/06/03 06:42:48;;;;;;;14.20;13.60;;;15.40;99.90;;;;;;5034923;28;20488;-67
2023/06/03 06:45:21;;;;;;;15.33;14.33;;;15.40;99.90;;;;;;5038703;28;20481;-68
2023/06/03 06:47:49;;;;;;;14.80;14.20;;;15.40;99.90;;;;;;5028616;28;20460;-69
2023/06/03 06:50:36;;;;;;;14.40;13.80;;;15.40;99.90;;;;;;5035303;28;20471;-68
2023/06/03 06:53:04;;;;;;;13.40;12.90;;;15.40;99.90;;;;;;5036871;28;20463;-67
2023/06/03 06:55:41;;;;;;;14.00;13.50;;;15.60;99.90;;;;;;5034069;28;20462;-68
2023/06/03 06:58:10;;;;;;;14.03;13.43;;;15.70;99.90;;;;;;5032813;28;20466;-68
2023/06/03 07:00:38;;;;;;;13.80;13.20;;;15.90;99.90;;;;;;5036206;28;21013;-68
2023/06/03 07:03:07;;;;;;;14.60;13.97;;;16.10;99.90;;;;;;5043228;28;20491;-68
2023/06/03 07:05:33;;;;;;;14.50;13.90;;;16.30;99.90;;;;;;5036177;28;20587;-67
2023/06/03 07:08:01;;;;;;;13.70;13.20;;;16.30;99.90;;;;;;5043239;28;20467;-68
2023/06/03 07:10:28;;;;;;;14.50;13.90;;;16.30;99.90;;;;;;5028131;28;20526;-68
2023/06/03 07:12:55;;;;;;;14.30;13.70;;;16.50;99.90;;;;;;5029900;28;20461;-68
2023/06/03 07:15:24;;;;;;;15.43;14.10;;;16.80;99.90;;;;;;5033819;28;20457;-68
2023/06/03 07:17:51;;;;;;;14.80;14.20;;;16.70;99.90;;;;;;5030245;28;20468;-68
2023/06/03 07:20:20;;;;;;;15.50;14.60;;;17.00;99.90;;;;;;5030432;28;21098;-67
2023/06/03 07:22:47;;;;;;;15.17;14.30;;;17.10;99.90;;;;;;5036418;28;20971;-68
2023/06/03 07:25:25;;;;;;;15.07;14.37;;;17.10;99.90;;;;;;5033769;28;21026;-68
2023/06/03 07:27:52;;;;;;;14.60;14.00;;;17.40;99.90;;;;;;5036092;28;20460;-68
2023/06/03 07:30:20;;;;;;;14.13;13.33;;;17.40;99.90;;;;;;5041851;28;20465;-68
2023/06/03 07:32:48;;;;;;;13.97;13.27;;;17.10;99.90;;;;;;5037458;28;20857;-68
2023/06/03 07:35:19;;;;;;;14.20;13.50;;;17.10;99.90;;;;;;5037048;28;20465;-68
2023/06/03 07:37:47;;;;;;;14.60;13.90;;;17.00;99.90;;;;;;5039027;28;20529;-68
2023/06/03 07:40:16;;;;;;;14.50;13.90;;;17.20;99.90;;;;;;5042512;28;20469;-68
2023/06/03 07:42:45;;;;;;;14.87;14.20;;;17.30;99.90;;;;;;5033960;28;20464;-67
2023/06/03 07:45:14;;;;;;;15.87;15.07;;;17.60;99.90;;;;;;5042755;28;20963;-67
2023/06/03 07:47:42;;;;;;;15.03;14.43;;;17.80;99.90;;;;;;5043836;28;20491;-68
2023/06/03 07:50:22;;;;;;;14.90;14.30;;;18.00;99.90;;;;;;5040413;28;20479;-68
2023/06/03 07:52:57;;;;;;;14.57;13.97;;;18.10;99.90;;;;;;5034786;28;20478;-67
2023/06/03 07:55:24;;;;;;;15.23;14.53;;;18.10;99.90;;;;;;5039518;28;20847;-67
2023/06/03 07:57:51;;;;;;;15.63;14.93;;;18.00;99.90;;;;;;5041019;28;20467;-67
2023/06/03 08:00:18;;;;;;;15.00;14.40;;;18.00;99.90;;;;;;5037453;28;20573;-67
2023/06/03 08:02:45;;;;;;;16.27;15.43;;;18.40;99.90;;;;;;5036901;28;20468;-67
2023/06/03 08:05:12;;;;;;;17.20;15.70;;;18.70;99.90;;;;;;5034010;28;20468;-67
2023/06/03 08:07:43;;;;;;;14.80;14.20;;;18.90;99.90;;;;;;5038450;28;20476;-67
2023/06/03 08:10:21;;;;;;;15.40;14.70;;;19.50;99.90;;;;;;5036571;28;20460;-68
2023/06/03 08:12:48;;;;;;;17.93;14.97;;;20.20;99.90;;;;;;5039132;28;20547;-67
2023/06/03 08:15:22;;;;;;;16.13;15.40;;;20.80;99.90;;;;;;5038214;28;20475;-68
2023/06/03 08:17:49;;;;;;;15.50;14.70;;;21.20;99.90;;;;;;5036913;28;20959;-68
2023/06/03 08:20:16;;;;;;;15.07;14.40;;;21.40;99.90;;;;;;5037523;28;20487;-68
2023/06/03 08:22:45;;;;;;;15.30;14.67;;;21.70;99.70;;;;;;5034933;28;21025;-67
2023/06/03 08:25:14;;;;;;;15.20;14.50;;;21.60;98.00;;;;;;5044067;28;20460;-68
2023/06/03 08:27:41;;;;;;;15.70;14.80;;;21.50;97.10;;;;;;5036293;28;20475;-68
2023/06/03 08:30:09;;;;;;;15.53;14.70;;;21.80;96.10;;;;;;5039621;28;20975;-68
2023/06/03 08:32:38;;;;;;;15.27;14.57;;;21.70;95.00;;;;;;5040169;28;20858;-67
2023/06/03 08:35:05;;;;;;;16.00;15.30;;;21.60;94.50;;;;;;5041294;28;20540;-67
2023/06/03 08:37:33;;;;;;;14.90;14.30;;;21.90;94.40;;;;;;5035813;28;20469;-68
2023/06/03 08:40:05;;;;;;;15.57;14.47;;;22.10;93.10;;;;;;5034598;28;20463;-68
2023/06/03 08:42:40;;;;;;;15.13;14.50;;;22.80;92.80;;;;;;5034913;28;20627;-68
2023/06/03 08:45:08;;;;;;;15.00;14.40;;;22.70;91.30;;;;;;5035151;28;21001;-68
2023/06/03 08:47:46;;;;;;;14.73;14.03;;;22.20;91.30;;;;;;5031403;28;20468;-68
2023/06/03 08:50:17;;;;;;;14.10;13.50;;;22.40;89.50;;;;;;5037595;28;20466;-67
2023/06/03 08:52:46;;;;;;;14.30;13.70;;;22.80;90.30;;;;;;5033989;28;20509;-68
2023/06/03 08:55:17;;;;;;;13.47;12.97;;;23.20;83.90;;;;;;5033929;28;20953;-68
2023/06/03 08:57:48;;;;;;;13.43;12.93;;;22.80;86.00;;;;;;5033082;28;20891;-68
2023/06/03 09:00:21;;;;;;;13.00;12.50;;;23.40;84.70;;;;;;5036144;28;20819;-67
2023/06/03 09:02:49;;;;;;;13.13;12.63;;;24.20;80.20;;;;;;5040551;28;20533;-68
2023/06/03 09:05:16;;;;;;;13.73;13.10;;;24.30;80.30;;;;;;5036403;28;20488;-68
2023/06/03 09:07:45;;;;;;;13.30;12.80;;;24.70;78.10;;;;;;5031648;28;20542;-68
2023/06/03 09:10:14;;;;;;;13.53;12.80;;;24.30;76.00;;;;;;5041276;28;20575;-68
2023/06/03 09:12:41;;;;;;;14.10;13.50;;;24.30;75.00;;;;;;5036145;28;20844;-68
2023/06/03 09:15:09;;;;;;;13.40;12.70;;;24.20;73.40;;;;;;5040696;28;20470;-68
2023/06/03 09:17:36;;;;;;;13.10;12.60;;;24.70;73.50;;;;;;5035135;28;21031;-67
2023/06/03 09:20:05;;;;;;;13.27;12.77;;;24.90;71.70;;;;;;5040312;28;20481;-68
2023/06/03 09:22:32;;;;;;;13.33;12.83;;;24.80;70.90;;;;;;5036262;28;20463;-68
2023/06/03 09:24:59;;;;;;;12.70;12.20;;;24.70;70.30;;;;;;5037449;28;20873;-68
2023/06/03 09:27:27;;;;;;;12.93;12.43;;;25.10;69.90;;;;;;5034597;28;20472;-68
2023/06/03 09:29:54;;;;;;;12.47;11.97;;;25.70;67.60;;;;;;5032401;28;20465;-68
2023/06/03 09:32:22;;;;;;;13.00;12.50;;;26.10;67.90;;;;;;5036196;28;20561;-68
2023/06/03 09:34:50;;;;;;;12.80;12.30;;;25.80;63.80;;;;;;5033675;28;20897;-68
2023/06/03 09:37:16;;;;;;;12.70;12.20;;;25.40;65.90;;;;;;5035175;28;20892;-68
2023/06/03 09:39:48;;;;;;;13.60;12.50;;;25.50;64.30;;;;;;5035313;28;20463;-68
2023/06/03 09:42:16;;;;;;;12.77;12.27;;;25.80;64.70;;;;;;5041847;28;20459;-68
2023/06/03 09:44:49;;;;;;;13.47;12.87;;;25.20;62.40;;;;;;5040775;28;20574;-68
2023/06/03 09:47:16;;;;;;;13.20;12.70;;;25.60;62.90;;;;;;5037870;28;20465;-68
2023/06/03 09:50:01;;;;;;;12.80;12.30;;;25.80;61.10;;;;;;5034059;28;20456;-67
2023/06/03 09:52:32;;;;;;;12.47;12.00;;;26.20;59.40;;;;;;5038302;28;20491;-68
2023/06/03 09:55:02;;;;;;;13.10;12.33;;;25.50;61.30;;;;;;5036349;28;20512;-68
2023/06/03 09:57:29;;;;;;;13.40;12.67;;;25.50;61.50;;;;;;5031540;28;20532;-68
2023/06/03 10:00:11;;;;;;;12.80;12.30;;;25.70;59.70;;;;;;5032751;28;20551;-68
2023/06/03 10:02:38;;;;;;;12.10;11.70;;;25.70;61.40;;;;;;5035147;28;20460;-68
2023/06/03 10:05:25;;;;;;;12.70;12.10;;;25.60;59.80;;;;;;5037057;28;20490;-68
2023/06/03 10:07:51;;;;;;;13.67;12.97;;;25.60;58.50;;;;;;5033583;28;20467;-68
2023/06/03 10:10:18;;;;;;;12.73;12.23;;;25.70;59.00;;;;;;5033046;28;20530;-68
2023/06/03 10:12:46;;;;;;;12.30;11.80;;;25.50;59.80;;;;;;5029033;28;20468;-68
2023/06/03 10:15:33;;;;;;;13.37;12.67;;;25.70;59.70;;;;;;5040497;28;20518;-68
2023/06/03 10:18:00;;;;;;;14.30;12.97;;;26.00;58.30;;;;;;5028417;28;20839;-68
2023/06/03 10:20:37;;;;;;;12.67;12.17;;;26.30;59.10;;;;;;5029818;28;20482;-68
2023/06/03 10:23:05;;;;;;;12.90;12.40;;;26.40;57.60;;;;;;5031474;28;20449;-68
2023/06/03 10:25:35;;;;;;;13.00;12.50;;;26.90;57.70;;;;;;5033743;28;20908;-69
2023/06/03 10:28:02;;;;;;;13.13;12.63;;;27.30;56.60;;;;;;5026640;28;20461;-68
2023/06/03 10:30:31;;;;;;;12.80;12.20;;;27.60;55.90;;;;;;5039947;28;20535;-68
2023/06/03 10:33:02;;;;;;;13.43;12.83;;;26.80;54.30;;;;;;5034304;28;20492;-68
2023/06/03 10:35:32;;;;;;;12.80;12.30;;;27.10;55.70;;;;;;5035429;28;20468;-68
2023/06/03 10:38:00;;;;;;;13.63;12.90;;;27.10;55.10;;;;;;5030742;28;20556;-68
2023/06/03 10:40:28;;;;;;;49.70;12.27;;;27.30;54.80;;;;;;5031833;28;20456;-68
2023/06/03 10:42:56;;;;;;;13.70;13.00;;;28.00;54.50;;;;;;5034524;28;20959;-68
2023/06/03 10:45:23;;;;;;;12.57;12.10;;;27.50;55.00;;;;;;5037538;28;20533;-68
2023/06/03 10:47:57;;;;;;;12.97;12.47;;;28.00;54.10;;;;;;5030241;28;20515;-68
2023/06/03 10:50:35;;;;;;;12.13;11.67;;;27.00;53.00;;;;;;5031425;28;20465;-68
2023/06/03 10:53:20;;;;;;;12.73;12.23;;;27.20;54.00;;;;;;5035731;28;20495;-68
2023/06/03 10:56:04;;;;;;;12.27;11.77;;;27.40;54.20;;;;;;5035174;28;20975;-68
2023/06/03 10:58:32;;;;;;;11.70;11.30;;;26.70;53.30;;;;;;5033056;28;20471;-68
2023/06/03 11:01:01;;;;;;;12.40;12.00;;;26.60;53.80;;;;;;5035517;28;20468;-68
2023/06/03 11:03:30;;;;;;;11.90;11.50;;;26.80;54.50;;;;;;5040479;28;20452;-68
2023/06/03 11:06:30;;;;;;;12.80;12.30;;;27.70;54.90;;;;;;5035035;28;20488;-68
2023/06/03 11:09:00;;;;;;;12.07;11.67;;;28.60;51.20;;;;;;5036207;28;20982;-68
2023/06/03 11:12:02;;;;;;;12.80;12.30;;;28.10;52.40;;;;;;5040630;28;20490;-69
2023/06/03 11:14:57;;;;;;;13.20;12.70;;;28.10;52.40;;;;;;5036206;28;20539;-68
2023/06/03 11:17:27;;;;;;;12.17;11.77;;;28.00;51.10;;;;;;5042381;28;20560;-68
2023/06/03 11:20:03;;;;;;;12.87;12.37;;;28.00;52.80;;;;;;5035221;28;20484;-68
2023/06/03 11:22:45;;;;;;;11.93;11.53;;;28.50;52.10;;;;;;5033693;28;20823;-68
2023/06/03 11:25:30;;;;;;;11.80;11.40;;;28.10;51.90;;;;;;5039415;28;20574;-68
2023/06/03 11:28:36;;;;;;;12.57;12.07;;;28.40;52.20;;;;;;5036575;28;20472;-68
2023/06/03 11:31:04;;;;;;;12.27;11.80;;;29.50;50.30;;;;;;5002133;28;20448;-68
2023/06/03 11:33:32;;;;;;;15.50;14.70;;;29.60;48.80;;;;;;5037117;28;20476;-68
2023/06/03 11:36:40;;;;;;;13.10;12.60;;;29.90;49.20;;;;;;5037488;28;20533;-68
2023/06/03 11:39:07;;;;;;;13.43;12.83;;;30.20;49.10;;;;;;5040682;28;20553;-68
2023/06/03 11:42:02;;;;;;;13.07;12.57;;;30.50;47.60;;;;;;5034014;28;20879;-68
2023/06/03 11:44:30;;;;;;;12.47;12.00;;;30.20;47.40;;;;;;5034788;28;21007;-68
2023/06/03 11:46:57;;;;;;;13.93;13.43;;;30.00;48.30;;;;;;5044772;28;20460;-68
2023/06/03 11:49:24;;;;;;;13.93;13.33;;;30.60;48.20;;;;;;5034533;28;20514;-68
2023/06/03 11:51:57;;;;;;;13.23;12.73;;;30.10;48.50;;;;;;5034876;28;21174;-68
2023/06/03 11:54:24;;;;;;;13.40;12.90;;;30.50;48.20;;;;;;5037097;28;20483;-68
2023/06/03 11:56:54;;;;;;;13.37;12.60;;;30.60;47.20;;;;;;5033084;28;20489;-68
2023/06/03 11:59:25;;;;;;;12.93;12.43;;;31.30;46.20;;;;;;5036696;28;20804;-69
2023/06/03 12:02:01;;;;;;;12.97;12.47;;;31.50;46.30;;;;;;5035096;28;20467;-69
2023/06/03 12:04:28;;;;;;;13.27;12.77;;;31.60;45.70;;;;;;5041671;28;20478;-68
2023/06/03 12:06:57;;;;;;;13.03;12.53;;;30.50;45.70;;;;;;5039779;28;20509;-68
2023/06/03 12:09:26;;;;;;;12.20;11.80;;;30.80;45.80;;;;;;5036881;28;20527;-69
2023/06/03 12:11:54;;;;;;;13.43;12.93;;;30.80;45.60;;;;;;5034744;28;20453;-68
2023/06/03 12:14:29;;;;;;;12.50;12.00;;;29.80;46.00;;;;;;5038852;28;20460;-68
2023/06/03 12:16:57;;;;;;;14.10;13.50;;;30.00;47.50;;;;;;5035325;28;20523;-68
2023/06/03 12:19:24;;;;;;;12.47;12.00;;;30.70;45.40;;;;;;5041554;28;20568;-68
2023/06/03 12:21:58;;;;;;;12.93;12.43;;;30.80;44.60;;;;;;5037623;28;21018;-68
2023/06/03 12:24:31;;;;;;;12.90;12.40;;;31.00;44.70;;;;;;5031929;28;20519;-69
2023/06/03 12:27:11;;;;;;;13.83;13.23;;;30.80;44.90;;;;;;5034037;28;20463;-68
2023/06/03 12:29:43;;;;;;;12.97;12.47;;;29.40;45.40;;;;;;5032690;28;20452;-69
2023/06/03 12:32:10;;;;;;;13.10;12.60;;;29.80;46.10;;;;;;5027198;28;20531;-69
2023/06/03 12:34:37;;;;;;;12.83;12.33;;;29.70;46.70;;;;;;5037607;28;20942;-68
2023/06/03 12:37:06;;;;;;;13.60;13.00;;;29.90;46.20;;;;;;5033996;28;20465;-68
2023/06/03 12:39:50;;;;;;;13.90;13.30;;;30.30;46.30;;;;;;5037695;28;20456;-69
2023/06/03 12:42:18;;;;;;;13.17;12.60;;;30.80;44.70;;;;;;5037957;28;20469;-69
2023/06/03 12:44:47;;;;;;;13.20;12.70;;;30.80;44.30;;;;;;5031199;28;20562;-68
2023/06/03 12:47:16;;;;;;;12.83;12.33;;;30.80;44.00;;;;;;5033921;28;20459;-68
2023/06/03 12:49:43;;;;;;;12.73;12.23;;;30.40;44.60;;;;;;5032836;28;20944;-69